sensor_id;sensor_type;location;lat;lon;timestamp;pressure;altitude;pressure_sealevel;temperature;humidity
36248;BME280;22287;50.824;5.644;2023-01-28T00:00:19;101997.59;;;3.93;74.03
36248;BME280;22287;50.824;5.644;2023-01-28T00:02:46;101991.06;;;3.77;74.25
36248;BME280;22287;50.824;5.644;2023-01-28T00:05:17;101993.75;;;3.77;74.57
36248;BME280;22287;50.824;5.644;2023-01-28T00:07:44;101996.19;;;4.06;73.49
36248;BME280;22287;50.824;5.644;2023-01-28T00:10:10;101993.28;;;4.35;72.24
36248;BME280;22287;50.824;5.644;2023-01-28T00:12:37;101985.63;;;4.69;70.82
36248;BME280;22287;50.824;5.644;2023-01-28T00:15:04;101988.44;;;4.00;73.35
36248;BME280;22287;50.824;5.644;2023-01-28T00:17:31;101985.72;;;3.77;74.21
36248;BME280;22287;50.824;5.644;2023-01-28T00:19:58;101988.34;;;4.01;73.51
36248;BME280;22287;50.824;5.644;2023-01-28T00:22:28;101992.78;;;3.54;75.00
36248;BME280;22287;50.824;5.644;2023-01-28T00:24:55;101990.00;;;3.58;75.01
36248;BME280;22287;50.824;5.644;2023-01-28T00:27:23;101982.13;;;4.01;73.15
36248;BME280;22287;50.824;5.644;2023-01-28T00:29:50;101975.75;;;4.50;71.88
36248;BME280;22287;50.824;5.644;2023-01-28T00:32:17;101981.69;;;4.13;72.92
36248;BME280;22287;50.824;5.644;2023-01-28T00:34:44;101979.13;;;4.10;72.87
36248;BME280;22287;50.824;5.644;2023-01-28T00:37:10;101971.00;;;4.35;71.69
36248;BME280;22287;50.824;5.644;2023-01-28T00:39:37;101972.34;;;4.23;71.87
36248;BME280;22287;50.824;5.644;2023-01-28T00:42:04;101978.78;;;4.19;72.79
36248;BME280;22287;50.824;5.644;2023-01-28T00:44:31;101981.78;;;4.10;72.64
36248;BME280;22287;50.824;5.644;2023-01-28T00:47:01;101978.53;;;4.02;72.79
36248;BME280;22287;50.824;5.644;2023-01-28T00:49:28;101969.25;;;3.89;73.09
36248;BME280;22287;50.824;5.644;2023-01-28T00:51:56;101968.34;;;3.65;74.38
36248;BME280;22287;50.824;5.644;2023-01-28T00:54:23;101969.88;;;4.19;72.95
36248;BME280;22287;50.824;5.644;2023-01-28T00:56:51;101972.00;;;4.54;70.75
36248;BME280;22287;50.824;5.644;2023-01-28T00:59:19;101974.31;;;4.41;72.00
36248;BME280;22287;50.824;5.644;2023-01-28T01:01:46;101980.28;;;4.03;72.93
36248;BME280;22287;50.824;5.644;2023-01-28T01:04:13;101973.22;;;4.47;71.47
36248;BME280;22287;50.824;5.644;2023-01-28T01:06:52;101973.56;;;4.38;72.18
36248;BME280;22287;50.824;5.644;2023-01-28T01:09:19;101970.97;;;4.36;72.07
36248;BME280;22287;50.824;5.644;2023-01-28T01:11:45;101969.53;;;4.04;73.26
36248;BME280;22287;50.824;5.644;2023-01-28T01:14:12;101975.59;;;3.86;73.34
36248;BME280;22287;50.824;5.644;2023-01-28T01:16:39;101976.97;;;3.48;74.88
36248;BME280;22287;50.824;5.644;2023-01-28T01:19:18;101977.72;;;3.52;75.11
36248;BME280;22287;50.824;5.644;2023-01-28T01:21:45;101982.09;;;3.54;75.08
36248;BME280;22287;50.824;5.644;2023-01-28T01:24:16;101986.50;;;3.80;73.42
36248;BME280;22287;50.824;5.644;2023-01-28T01:26:43;101977.47;;;4.06;73.37
36248;BME280;22287;50.824;5.644;2023-01-28T01:29:10;101981.72;;;4.56;71.92
36248;BME280;22287;50.824;5.644;2023-01-28T01:31:39;101983.81;;;4.27;72.63
36248;BME280;22287;50.824;5.644;2023-01-28T01:34:06;101985.41;;;3.86;73.84
36248;BME280;22287;50.824;5.644;2023-01-28T01:36:33;101990.38;;;3.72;74.75
36248;BME280;22287;50.824;5.644;2023-01-28T01:38:59;101986.78;;;3.73;74.33
36248;BME280;22287;50.824;5.644;2023-01-28T01:41:31;101993.03;;;4.20;71.91
36248;BME280;22287;50.824;5.644;2023-01-28T01:44:00;101992.72;;;4.04;72.88
36248;BME280;22287;50.824;5.644;2023-01-28T01:46:44;101991.19;;;3.74;73.48
36248;BME280;22287;50.824;5.644;2023-01-28T01:49:21;101994.47;;;4.05;73.79
36248;BME280;22287;50.824;5.644;2023-01-28T01:51:56;101989.28;;;3.77;73.75
36248;BME280;22287;50.824;5.644;2023-01-28T01:54:27;101987.59;;;3.98;73.41
36248;BME280;22287;50.824;5.644;2023-01-28T01:56:56;101984.00;;;4.22;72.54
36248;BME280;22287;50.824;5.644;2023-01-28T01:59:27;101987.22;;;3.61;74.36
36248;BME280;22287;50.824;5.644;2023-01-28T02:01:57;101991.69;;;3.35;75.21
36248;BME280;22287;50.824;5.644;2023-01-28T02:04:28;101990.44;;;3.45;75.45
36248;BME280;22287;50.824;5.644;2023-01-28T02:06:57;101996.22;;;3.58;74.92
36248;BME280;22287;50.824;5.644;2023-01-28T02:09:28;101993.44;;;3.61;75.05
36248;BME280;22287;50.824;5.644;2023-01-28T02:11:59;101996.19;;;4.06;73.16
36248;BME280;22287;50.824;5.644;2023-01-28T02:14:28;102001.16;;;3.93;72.80
36248;BME280;22287;50.824;5.644;2023-01-28T02:16:59;102003.34;;;3.82;73.82
36248;BME280;22287;50.824;5.644;2023-01-28T02:19:45;101999.41;;;3.44;75.28
36248;BME280;22287;50.824;5.644;2023-01-28T02:30:34;102003.53;;;3.53;75.02
36248;BME280;22287;50.824;5.644;2023-01-28T02:33:17;101993.69;;;3.53;74.94
36248;BME280;22287;50.824;5.644;2023-01-28T02:35:53;101998.28;;;3.75;73.60
36248;BME280;22287;50.824;5.644;2023-01-28T02:38:47;102009.72;;;4.03;73.73
36248;BME280;22287;50.824;5.644;2023-01-28T02:41:38;102009.09;;;3.72;73.64
36248;BME280;22287;50.824;5.644;2023-01-28T02:44:08;101999.22;;;3.74;74.13
36248;BME280;22287;50.824;5.644;2023-01-28T02:46:36;102003.78;;;3.70;73.60
36248;BME280;22287;50.824;5.644;2023-01-28T02:49:32;102005.31;;;3.28;75.06
36248;BME280;22287;50.824;5.644;2023-01-28T02:54:57;102000.88;;;3.28;75.63
36248;BME280;22287;50.824;5.644;2023-01-28T02:57:36;102009.13;;;3.45;75.06
36248;BME280;22287;50.824;5.644;2023-01-28T03:02:43;102014.06;;;3.58;74.25
36248;BME280;22287;50.824;5.644;2023-01-28T03:05:22;102017.75;;;3.53;74.73
36248;BME280;22287;50.824;5.644;2023-01-28T03:07:51;102015.81;;;3.59;74.71
36248;BME280;22287;50.824;5.644;2023-01-28T03:10:22;102020.00;;;3.66;74.63
36248;BME280;22287;50.824;5.644;2023-01-28T03:12:53;102016.81;;;3.56;74.50
36248;BME280;22287;50.824;5.644;2023-01-28T03:15:44;102020.97;;;3.12;75.64
36248;BME280;22287;50.824;5.644;2023-01-28T03:18:48;102018.75;;;3.51;74.06
36248;BME280;22287;50.824;5.644;2023-01-28T03:21:40;102021.47;;;3.49;74.77
36248;BME280;22287;50.824;5.644;2023-01-28T03:24:34;102030.78;;;3.87;73.54
36248;BME280;22287;50.824;5.644;2023-01-28T03:27:28;102024.97;;;3.76;73.72
36248;BME280;22287;50.824;5.644;2023-01-28T03:30:23;102028.03;;;3.66;73.08
36248;BME280;22287;50.824;5.644;2023-01-28T03:33:18;102026.00;;;3.72;74.36
36248;BME280;22287;50.824;5.644;2023-01-28T03:36:06;102025.63;;;3.83;72.99
36248;BME280;22287;50.824;5.644;2023-01-28T03:38:52;102023.31;;;3.97;72.51
36248;BME280;22287;50.824;5.644;2023-01-28T03:41:22;102029.53;;;3.48;73.92
36248;BME280;22287;50.824;5.644;2023-01-28T03:43:51;102022.06;;;3.33;74.65
36248;BME280;22287;50.824;5.644;2023-01-28T03:46:19;102022.72;;;3.89;73.27
36248;BME280;22287;50.824;5.644;2023-01-28T03:48:46;102022.97;;;3.81;72.84
36248;BME280;22287;50.824;5.644;2023-01-28T03:51:14;102025.72;;;3.80;73.31
36248;BME280;22287;50.824;5.644;2023-01-28T03:53:41;102028.44;;;4.03;72.57
36248;BME280;22287;50.824;5.644;2023-01-28T03:56:09;102038.22;;;3.79;72.98
36248;BME280;22287;50.824;5.644;2023-01-28T03:58:43;102030.00;;;3.34;73.74
36248;BME280;22287;50.824;5.644;2023-01-28T04:01:19;102034.25;;;3.41;73.92
36248;BME280;22287;50.824;5.644;2023-01-28T04:03:47;102035.88;;;3.70;73.47
36248;BME280;22287;50.824;5.644;2023-01-28T04:06:18;102047.06;;;3.56;74.11
36248;BME280;22287;50.824;5.644;2023-01-28T04:08:51;102041.69;;;3.56;73.27
36248;BME280;22287;50.824;5.644;2023-01-28T04:11:41;102048.41;;;3.43;73.77
36248;BME280;22287;50.824;5.644;2023-01-28T04:14:12;102045.47;;;4.00;72.45
36248;BME280;22287;50.824;5.644;2023-01-28T04:16:43;102046.44;;;3.48;74.15
36248;BME280;22287;50.824;5.644;2023-01-28T04:19:11;102043.75;;;3.50;74.07
36248;BME280;22287;50.824;5.644;2023-01-28T04:21:39;102040.97;;;3.27;73.42
36248;BME280;22287;50.824;5.644;2023-01-28T04:24:07;102047.53;;;3.68;73.51
36248;BME280;22287;50.824;5.644;2023-01-28T04:26:34;102049.66;;;3.07;74.30
36248;BME280;22287;50.824;5.644;2023-01-28T04:29:01;102046.28;;;3.28;74.42
36248;BME280;22287;50.824;5.644;2023-01-28T04:31:29;102049.88;;;3.27;74.97
36248;BME280;22287;50.824;5.644;2023-01-28T04:34:15;102060.63;;;3.26;74.34
36248;BME280;22287;50.824;5.644;2023-01-28T04:37:02;102053.44;;;3.26;74.34
36248;BME280;22287;50.824;5.644;2023-01-28T04:39:44;102053.31;;;3.31;72.75
36248;BME280;22287;50.824;5.644;2023-01-28T04:42:38;102059.78;;;3.75;72.47
36248;BME280;22287;50.824;5.644;2023-01-28T04:45:17;102063.81;;;3.37;73.35
36248;BME280;22287;50.824;5.644;2023-01-28T04:48:10;102061.31;;;3.05;74.22
36248;BME280;22287;50.824;5.644;2023-01-28T04:50:51;102056.81;;;3.33;73.17
36248;BME280;22287;50.824;5.644;2023-01-28T04:53:32;102052.94;;;3.15;73.73
36248;BME280;22287;50.824;5.644;2023-01-28T04:56:05;102061.38;;;3.29;74.03
36248;BME280;22287;50.824;5.644;2023-01-28T04:58:33;102056.41;;;2.91;74.69
36248;BME280;22287;50.824;5.644;2023-01-28T05:01:04;102065.16;;;2.96;74.17
36248;BME280;22287;50.824;5.644;2023-01-28T05:03:31;102064.59;;;3.13;73.90
36248;BME280;22287;50.824;5.644;2023-01-28T05:06:01;102056.81;;;3.33;72.60
36248;BME280;22287;50.824;5.644;2023-01-28T05:08:37;102058.19;;;3.44;72.03
36248;BME280;22287;50.824;5.644;2023-01-28T05:11:04;102061.59;;;3.48;72.20
36248;BME280;22287;50.824;5.644;2023-01-28T05:13:31;102062.94;;;3.86;71.58
36248;BME280;22287;50.824;5.644;2023-01-28T05:15:58;102061.22;;;3.34;71.83
36248;BME280;22287;50.824;5.644;2023-01-28T05:18:25;102068.63;;;3.77;71.82
36248;BME280;22287;50.824;5.644;2023-01-28T05:21:03;102066.69;;;3.31;72.63
36248;BME280;22287;50.824;5.644;2023-01-28T05:23:34;102072.31;;;3.22;71.41
36248;BME280;22287;50.824;5.644;2023-01-28T05:26:01;102068.16;;;3.39;71.83
36248;BME280;22287;50.824;5.644;2023-01-28T05:28:29;102072.56;;;3.14;72.03
36248;BME280;22287;50.824;5.644;2023-01-28T05:31:02;102067.41;;;3.61;71.42
36248;BME280;22287;50.824;5.644;2023-01-28T05:33:29;102069.59;;;3.49;70.56
36248;BME280;22287;50.824;5.644;2023-01-28T05:35:56;102077.13;;;3.11;72.03
36248;BME280;22287;50.824;5.644;2023-01-28T05:38:23;102072.38;;;3.20;71.72
36248;BME280;22287;50.824;5.644;2023-01-28T05:40:50;102079.53;;;2.92;72.70
36248;BME280;22287;50.824;5.644;2023-01-28T05:43:17;102079.63;;;3.17;73.20
36248;BME280;22287;50.824;5.644;2023-01-28T05:46:05;102086.81;;;3.41;71.63
36248;BME280;22287;50.824;5.644;2023-01-28T05:48:50;102083.81;;;3.24;71.87
36248;BME280;22287;50.824;5.644;2023-01-28T05:51:52;102077.72;;;3.71;69.38
36248;BME280;22287;50.824;5.644;2023-01-28T05:54:33;102089.28;;;3.47;70.92
36248;BME280;22287;50.824;5.644;2023-01-28T05:57:14;102091.78;;;3.78;69.17
36248;BME280;22287;50.824;5.644;2023-01-28T05:59:42;102094.47;;;3.76;68.65
36248;BME280;22287;50.824;5.644;2023-01-28T06:02:10;102102.13;;;3.36;70.68
36248;BME280;22287;50.824;5.644;2023-01-28T06:04:54;102101.34;;;3.32;70.67
36248;BME280;22287;50.824;5.644;2023-01-28T06:07:21;102108.06;;;3.18;70.39
36248;BME280;22287;50.824;5.644;2023-01-28T06:09:51;102109.00;;;3.17;70.49
36248;BME280;22287;50.824;5.644;2023-01-28T06:12:20;102104.28;;;2.97;71.39
36248;BME280;22287;50.824;5.644;2023-01-28T06:15:12;102096.63;;;3.40;69.61
36248;BME280;22287;50.824;5.644;2023-01-28T06:17:58;102106.69;;;3.59;70.14
36248;BME280;22287;50.824;5.644;2023-01-28T06:20:27;102100.47;;;2.78;72.57
36248;BME280;22287;50.824;5.644;2023-01-28T06:22:56;102106.28;;;2.90;71.38
36248;BME280;22287;50.824;5.644;2023-01-28T06:25:22;102102.94;;;2.84;71.79
36248;BME280;22287;50.824;5.644;2023-01-28T06:27:49;102111.16;;;2.76;72.37
36248;BME280;22287;50.824;5.644;2023-01-28T06:30:16;102114.16;;;2.95;71.54
36248;BME280;22287;50.824;5.644;2023-01-28T06:32:43;102101.22;;;3.37;70.21
36248;BME280;22287;50.824;5.644;2023-01-28T06:35:10;102106.78;;;3.29;70.03
36248;BME280;22287;50.824;5.644;2023-01-28T06:37:37;102095.47;;;3.21;70.35
36248;BME280;22287;50.824;5.644;2023-01-28T06:40:05;102099.25;;;3.42;67.29
36248;BME280;22287;50.824;5.644;2023-01-28T06:42:32;102103.47;;;3.23;69.90
36248;BME280;22287;50.824;5.644;2023-01-28T06:44:59;102100.13;;;2.88;70.81
36248;BME280;22287;50.824;5.644;2023-01-28T06:47:26;102106.78;;;3.03;70.93
36248;BME280;22287;50.824;5.644;2023-01-28T06:49:53;102110.41;;;3.28;69.38
36248;BME280;22287;50.824;5.644;2023-01-28T06:52:19;102112.03;;;3.32;69.96
36248;BME280;22287;50.824;5.644;2023-01-28T06:54:46;102110.88;;;3.13;69.65
36248;BME280;22287;50.824;5.644;2023-01-28T06:57:13;102115.78;;;2.99;70.39
36248;BME280;22287;50.824;5.644;2023-01-28T06:59:40;102120.53;;;3.45;69.17
36248;BME280;22287;50.824;5.644;2023-01-28T07:02:10;102130.44;;;3.41;69.30
36248;BME280;22287;50.824;5.644;2023-01-28T07:04:37;102131.19;;;3.19;69.83
36248;BME280;22287;50.824;5.644;2023-01-28T07:07:03;102127.41;;;3.52;70.28
36248;BME280;22287;50.824;5.644;2023-01-28T07:09:30;102129.09;;;3.28;70.01
36248;BME280;22287;50.824;5.644;2023-01-28T07:11:57;102125.66;;;2.97;70.31
36248;BME280;22287;50.824;5.644;2023-01-28T07:14:24;102127.81;;;3.12;69.65
36248;BME280;22287;50.824;5.644;2023-01-28T07:16:51;102120.84;;;2.80;71.03
36248;BME280;22287;50.824;5.644;2023-01-28T07:19:18;102121.38;;;3.19;70.00
36248;BME280;22287;50.824;5.644;2023-01-28T07:21:44;102114.59;;;3.35;69.44
36248;BME280;22287;50.824;5.644;2023-01-28T07:24:11;102123.56;;;3.07;68.66
36248;BME280;22287;50.824;5.644;2023-01-28T07:26:38;102126.19;;;3.08;69.47
36248;BME280;22287;50.824;5.644;2023-01-28T07:29:05;102135.16;;;3.33;69.57
36248;BME280;22287;50.824;5.644;2023-01-28T07:31:31;102131.09;;;3.22;69.33
36248;BME280;22287;50.824;5.644;2023-01-28T07:33:58;102124.81;;;3.50;67.43
36248;BME280;22287;50.824;5.644;2023-01-28T07:36:25;102136.09;;;3.59;66.61
36248;BME280;22287;50.824;5.644;2023-01-28T07:38:52;102131.78;;;3.54;67.17
36248;BME280;22287;50.824;5.644;2023-01-28T07:41:19;102136.75;;;3.65;67.08
36248;BME280;22287;50.824;5.644;2023-01-28T07:43:46;102128.28;;;3.52;67.03
36248;BME280;22287;50.824;5.644;2023-01-28T07:46:13;102125.56;;;2.71;69.96
36248;BME280;22287;50.824;5.644;2023-01-28T07:48:40;102126.66;;;2.93;69.83
36248;BME280;22287;50.824;5.644;2023-01-28T07:51:06;102129.13;;;3.01;69.01
36248;BME280;22287;50.824;5.644;2023-01-28T07:53:33;102136.06;;;3.06;68.57
36248;BME280;22287;50.824;5.644;2023-01-28T07:56:00;102134.94;;;3.13;68.14
36248;BME280;22287;50.824;5.644;2023-01-28T07:58:27;102127.09;;;3.35;66.55
36248;BME280;22287;50.824;5.644;2023-01-28T08:00:57;102131.97;;;3.48;67.40
36248;BME280;22287;50.824;5.644;2023-01-28T08:03:25;102133.59;;;3.26;68.61
36248;BME280;22287;50.824;5.644;2023-01-28T08:05:55;102142.56;;;3.51;66.46
36248;BME280;22287;50.824;5.644;2023-01-28T08:08:23;102145.44;;;3.45;66.73
36248;BME280;22287;50.824;5.644;2023-01-28T08:11:08;102147.72;;;3.58;67.05
36248;BME280;22287;50.824;5.644;2023-01-28T08:13:36;102169.47;;;3.98;65.28
36248;BME280;22287;50.824;5.644;2023-01-28T08:16:03;102167.63;;;3.21;67.96
36248;BME280;22287;50.824;5.644;2023-01-28T08:18:30;102165.88;;;3.20;68.37
36248;BME280;22287;50.824;5.644;2023-01-28T08:20:58;102170.19;;;3.24;67.96
36248;BME280;22287;50.824;5.644;2023-01-28T08:23:25;102185.13;;;3.58;65.55
36248;BME280;22287;50.824;5.644;2023-01-28T08:25:53;102181.34;;;2.51;70.56
36248;BME280;22287;50.824;5.644;2023-01-28T08:28:21;102190.81;;;2.62;68.85
36248;BME280;22287;50.824;5.644;2023-01-28T08:30:48;102185.75;;;3.12;66.12
36248;BME280;22287;50.824;5.644;2023-01-28T08:33:18;102178.81;;;3.05;67.42
36248;BME280;22287;50.824;5.644;2023-01-28T08:35:45;102180.19;;;3.45;65.85
36248;BME280;22287;50.824;5.644;2023-01-28T08:38:13;102181.56;;;3.31;65.93
36248;BME280;22287;50.824;5.644;2023-01-28T08:40:43;102183.97;;;3.66;65.92
36248;BME280;22287;50.824;5.644;2023-01-28T08:43:10;102182.91;;;3.44;66.61
36248;BME280;22287;50.824;5.644;2023-01-28T08:45:40;102186.75;;;3.89;64.33
36248;BME280;22287;50.824;5.644;2023-01-28T08:48:10;102195.81;;;3.58;65.86
36248;BME280;22287;50.824;5.644;2023-01-28T08:50:40;102197.69;;;2.98;66.29
36248;BME280;22287;50.824;5.644;2023-01-28T08:53:12;102201.28;;;3.54;65.23
36248;BME280;22287;50.824;5.644;2023-01-28T08:55:39;102209.09;;;2.76;67.41
36248;BME280;22287;50.824;5.644;2023-01-28T08:58:08;102210.34;;;2.63;67.90
36248;BME280;22287;50.824;5.644;2023-01-28T09:00:36;102215.25;;;3.07;66.47
36248;BME280;22287;50.824;5.644;2023-01-28T09:03:04;102212.59;;;2.78;66.50
36248;BME280;22287;50.824;5.644;2023-01-28T09:05:35;102220.38;;;3.15;65.01
36248;BME280;22287;50.824;5.644;2023-01-28T09:08:08;102225.69;;;2.85;65.86
36248;BME280;22287;50.824;5.644;2023-01-28T09:10:35;102223.06;;;3.15;65.78
36248;BME280;22287;50.824;5.644;2023-01-28T09:13:07;102225.78;;;2.82;66.38
36248;BME280;22287;50.824;5.644;2023-01-28T09:15:34;102232.34;;;2.71;66.80
36248;BME280;22287;50.824;5.644;2023-01-28T09:18:01;102243.56;;;2.53;66.33
36248;BME280;22287;50.824;5.644;2023-01-28T09:20:28;102247.72;;;2.30;67.70
36248;BME280;22287;50.824;5.644;2023-01-28T09:22:55;102244.78;;;2.72;66.42
36248;BME280;22287;50.824;5.644;2023-01-28T09:25:23;102244.63;;;2.78;65.46
36248;BME280;22287;50.824;5.644;2023-01-28T09:27:50;102239.94;;;3.15;65.23
36248;BME280;22287;50.824;5.644;2023-01-28T09:30:17;102244.72;;;3.04;64.62
36248;BME280;22287;50.824;5.644;2023-01-28T09:32:44;102256.94;;;2.82;65.11
36248;BME280;22287;50.824;5.644;2023-01-28T09:35:11;102249.50;;;2.93;65.55
36248;BME280;22287;50.824;5.644;2023-01-28T09:37:38;102250.00;;;2.46;66.75
36248;BME280;22287;50.824;5.644;2023-01-28T09:40:05;102261.50;;;2.48;66.79
36248;BME280;22287;50.824;5.644;2023-01-28T09:45:11;102252.66;;;2.46;66.91
36248;BME280;22287;50.824;5.644;2023-01-28T09:48:02;102243.91;;;3.02;66.14
36248;BME280;22287;50.824;5.644;2023-01-28T09:50:39;102252.84;;;2.70;66.85
36248;BME280;22287;50.824;5.644;2023-01-28T09:53:20;102265.84;;;2.82;66.56
36248;BME280;22287;50.824;5.644;2023-01-28T09:58:19;102263.50;;;2.40;69.36
36248;BME280;22287;50.824;5.644;2023-01-28T10:00:59;102274.09;;;2.43;65.65
36248;BME280;22287;50.824;5.644;2023-01-28T10:03:45;102270.78;;;2.96;65.33
36248;BME280;22287;50.824;5.644;2023-01-28T10:09:21;102263.16;;;3.13;65.46
36248;BME280;22287;50.824;5.644;2023-01-28T10:17:34;102265.84;;;2.82;67.05
36248;BME280;22287;50.824;5.644;2023-01-28T10:20:31;102262.03;;;2.91;65.91
36248;BME280;22287;50.824;5.644;2023-01-28T10:23:15;102259.00;;;3.60;64.42
36248;BME280;22287;50.824;5.644;2023-01-28T10:25:46;102267.19;;;3.55;63.40
36248;BME280;22287;50.824;5.644;2023-01-28T10:28:24;102259.09;;;3.00;65.64
36248;BME280;22287;50.824;5.644;2023-01-28T10:30:52;102261.69;;;3.60;64.37
36248;BME280;22287;50.824;5.644;2023-01-28T10:33:30;102260.44;;;3.15;63.83
36248;BME280;22287;50.824;5.644;2023-01-28T10:35:59;102258.94;;;3.05;64.90
36248;BME280;22287;50.824;5.644;2023-01-28T10:38:26;102265.91;;;3.10;65.06
36248;BME280;22287;50.824;5.644;2023-01-28T10:40:58;102256.19;;;2.77;65.79
36248;BME280;22287;50.824;5.644;2023-01-28T10:43:30;102250.88;;;2.77;64.21
36248;BME280;22287;50.824;5.644;2023-01-28T10:46:08;102251.88;;;3.04;63.90
36248;BME280;22287;50.824;5.644;2023-01-28T10:48:47;102254.50;;;2.74;64.90
36248;BME280;22287;50.824;5.644;2023-01-28T10:51:28;102256.03;;;3.12;63.76
36248;BME280;22287;50.824;5.644;2023-01-28T10:53:55;102250.63;;;3.43;63.38
36248;BME280;22287;50.824;5.644;2023-01-28T10:56:29;102258.25;;;3.27;64.75
36248;BME280;22287;50.824;5.644;2023-01-28T10:59:01;102261.38;;;3.12;64.85
36248;BME280;22287;50.824;5.644;2023-01-28T11:04:12;102258.81;;;3.38;63.71
36248;BME280;22287;50.824;5.644;2023-01-28T11:06:41;102256.84;;;2.85;65.37
36248;BME280;22287;50.824;5.644;2023-01-28T11:09:22;102254.16;;;3.16;64.02
36248;BME280;22287;50.824;5.644;2023-01-28T11:11:49;102268.13;;;3.25;63.49
36248;BME280;22287;50.824;5.644;2023-01-28T11:14:24;102261.25;;;3.74;63.72
36248;BME280;22287;50.824;5.644;2023-01-28T11:16:54;102253.41;;;3.68;64.57
36248;BME280;22287;50.824;5.644;2023-01-28T11:19:27;102264.28;;;4.15;62.33
36248;BME280;22287;50.824;5.644;2023-01-28T11:21:56;102255.00;;;3.73;64.98
36248;BME280;22287;50.824;5.644;2023-01-28T11:24:31;102259.34;;;4.03;63.22
36248;BME280;22287;50.824;5.644;2023-01-28T11:27:19;102265.34;;;3.58;65.62
36248;BME280;22287;50.824;5.644;2023-01-28T11:29:50;102264.53;;;3.54;64.70
36248;BME280;22287;50.824;5.644;2023-01-28T11:32:19;102269.78;;;3.85;64.17
36248;BME280;22287;50.824;5.644;2023-01-28T11:34:51;102270.25;;;3.14;64.09
36248;BME280;22287;50.824;5.644;2023-01-28T11:37:21;102264.19;;;3.09;65.43
36248;BME280;22287;50.824;5.644;2023-01-28T11:39:48;102268.69;;;3.64;64.46
36248;BME280;22287;50.824;5.644;2023-01-28T11:42:25;102252.84;;;3.84;63.11
36248;BME280;22287;50.824;5.644;2023-01-28T11:44:52;102251.22;;;4.06;62.13
36248;BME280;22287;50.824;5.644;2023-01-28T11:48:17;102253.19;;;3.18;63.38
36248;BME280;22287;50.824;5.644;2023-01-28T11:51:17;102244.63;;;3.07;64.22
36248;BME280;22287;50.824;5.644;2023-01-28T12:02:50;102239.66;;;3.24;63.03
36248;BME280;22287;50.824;5.644;2023-01-28T12:08:11;102245.34;;;3.12;64.19
36248;BME280;22287;50.824;5.644;2023-01-28T12:10:51;102237.88;;;3.23;64.25
36248;BME280;22287;50.824;5.644;2023-01-28T12:14:12;102247.50;;;3.29;63.08
36248;BME280;22287;50.824;5.644;2023-01-28T12:16:44;102244.63;;;3.07;64.71
36248;BME280;22287;50.824;5.644;2023-01-28T12:25:52;102247.44;;;3.32;63.72
36248;BME280;22287;50.824;5.644;2023-01-28T12:42:29;102219.66;;;3.91;61.74
36248;BME280;22287;50.824;5.644;2023-01-28T12:45:23;102214.66;;;3.81;60.18
36248;BME280;22287;50.824;5.644;2023-01-28T12:48:03;102209.53;;;3.19;63.84
36248;BME280;22287;50.824;5.644;2023-01-28T12:50:48;102204.81;;;3.27;63.86
36248;BME280;22287;50.824;5.644;2023-01-28T12:53:50;102191.22;;;2.78;64.37
36248;BME280;22287;50.824;5.644;2023-01-28T12:56:33;102177.28;;;3.25;63.03
36248;BME280;22287;50.824;5.644;2023-01-28T12:59:21;102171.75;;;3.04;63.12
36248;BME280;22287;50.824;5.644;2023-01-28T13:07:16;102193.50;;;3.99;60.67
36248;BME280;22287;50.824;5.644;2023-01-28T13:09:55;102169.72;;;3.92;59.80
36248;BME280;22287;50.824;5.644;2023-01-28T13:12:25;102166.06;;;3.94;58.16
36248;BME280;22287;50.824;5.644;2023-01-28T13:14:52;102164.31;;;4.18;56.46
36248;BME280;22287;50.824;5.644;2023-01-28T13:17:26;102160.06;;;3.62;58.87
36248;BME280;22287;50.824;5.644;2023-01-28T13:19:54;102146.03;;;4.31;57.64
36248;BME280;22287;50.824;5.644;2023-01-28T13:24:53;102139.69;;;3.84;61.25
36248;BME280;22287;50.824;5.644;2023-01-28T13:27:25;102139.34;;;4.18;60.24
36248;BME280;22287;50.824;5.644;2023-01-28T13:30:02;102148.25;;;3.93;60.77
36248;BME280;22287;50.824;5.644;2023-01-28T13:32:34;102147.75;;;4.07;58.84
36248;BME280;22287;50.824;5.644;2023-01-28T13:35:05;102152.38;;;3.51;61.84
36248;BME280;22287;50.824;5.644;2023-01-28T13:37:43;102157.38;;;3.88;60.96
36248;BME280;22287;50.824;5.644;2023-01-28T13:42:40;102164.66;;;3.03;63.63
36248;BME280;22287;50.824;5.644;2023-01-28T13:47:50;102171.63;;;4.38;56.32
36248;BME280;22287;50.824;5.644;2023-01-28T13:50:20;102179.16;;;4.27;56.27
36248;BME280;22287;50.824;5.644;2023-01-28T13:52:58;102189.81;;;3.77;58.86
36248;BME280;22287;50.824;5.644;2023-01-28T13:55:35;102201.38;;;3.51;60.79
36248;BME280;22287;50.824;5.644;2023-01-28T14:10:51;102209.31;;;3.81;62.33
36248;BME280;22287;50.824;5.644;2023-01-28T14:13:48;102207.41;;;3.58;61.70
36248;BME280;22287;50.824;5.644;2023-01-28T14:19:03;102219.88;;;4.84;54.82
36248;BME280;22287;50.824;5.644;2023-01-28T14:21:44;102219.50;;;3.70;59.17
36248;BME280;22287;50.824;5.644;2023-01-28T14:24:30;102212.84;;;3.27;60.66
36248;BME280;22287;50.824;5.644;2023-01-28T14:27:26;102216.84;;;3.42;60.77
36248;BME280;22287;50.824;5.644;2023-01-28T14:33:21;102193.22;;;3.56;60.52
36248;BME280;22287;50.824;5.644;2023-01-28T14:36:02;102183.59;;;3.50;60.01
36248;BME280;22287;50.824;5.644;2023-01-28T14:38:43;102188.22;;;3.72;58.90
36248;BME280;22287;50.824;5.644;2023-01-28T14:41:22;102191.72;;;3.74;58.39
36248;BME280;22287;50.824;5.644;2023-01-28T14:43:52;102179.97;;;3.51;59.62
36248;BME280;22287;50.824;5.644;2023-01-28T14:46:38;102178.59;;;3.92;57.96
36248;BME280;22287;50.824;5.644;2023-01-28T14:49:39;102180.78;;;4.06;58.83
36248;BME280;22287;50.824;5.644;2023-01-28T14:59:56;102190.13;;;3.94;59.28
36248;BME280;22287;50.824;5.644;2023-01-28T15:02:25;102181.91;;;4.25;58.69
36248;BME280;22287;50.824;5.644;2023-01-28T15:04:52;102173.88;;;4.25;57.88
36248;BME280;22287;50.824;5.644;2023-01-28T15:07:25;102165.13;;;4.20;59.19
36248;BME280;22287;50.824;5.644;2023-01-28T15:10:12;102169.38;;;4.26;59.22
36248;BME280;22287;50.824;5.644;2023-01-28T15:12:43;102167.75;;;4.22;57.07